Main page
METAR-TAF:

METAR-TAF

Airports :

Fort Madison Municipal Airport

Fort Madison, Iowa, United States

latitude: 40-40N, longitude: 091-20W, elevation: 725 ft

Current weather observation

The report was made 11 minutes ago, at 16:15 UTC
Wind 7 mph from the South
Temperature 72°F
Humidity 88%
Pressure 29.87 in. Hg
Visibility: 10 miles
Scattered clouds at a height of 1300 ft
Broken clouds at a height of 1800 ft

METAR: KFSW 281615Z AUTO 19006KT 10SM SCT013 BKN018 22/20 A2987 RMK AO2

Time: 11:26 (16:26 UTC)


TAF: missing

Weather observations and forecasts of more than 4000 airports (METAR and TAF reports).

The available stations are represented by yellow and red dots on the map.

Hover mouse over dot to see the name of the station.

Then click to see weather observations and forecasts.

To change the map : click on the green buttons with a black cross to zoom in, on the green button with a dash to zoom out, or on the green arrows for adjacent maps.


METAR-TAF: